Terminal Aerodrome Forecast
Issued by NWS Des Moines, IA

Home | Current Version | Previous Version | Text Only | Print | Product List | Glossary On
Versions: 1 2 3 4 5 6 7 8 9 10 11 12 13 14 15 16 17 18 19 20 21 22 23 24 25 26 27 28 29 30 31 32 33 34 35 36 37 38 39 40 41 42 43
000
FTUS43 KDMX 261733
TAFALO
TAF
KALO 261733Z 2618/2718 34012KT P6SM SCT250
     FM261900 34012KT 3SM BR OVC003
      TEMPO 2619/2621 1SM BR OVC002
     FM270300 36008KT 3SM -FZDZSN BR OVC005
     FM270900 32011KT 3SM -SN BR OVC008=

USA.gov is the U.S. government's official web portal to all federal, state and local government web resources and services.